Amr R — XUAX5 — position and weather

sailwx.info

Track history (hours):
 
Tides and Currents Weather Stations Pressure Air Temp Water Temp Dewpoint Dewpoint Depression Visibility Wind Speed Wind Dir Waves Ship Positions

Amr R

Last reported at 2014-Oct-01 08:29 UTC. Time now 2014-Oct-02 16:34 UTC.
Position N 43°52' E 035°53'.

Length 130 m; draft 5 m.

Type: Cargo ship. MMSI: 514427000.

Date/timePositionNaut miles runAvg speedWind from/ knotsBaromVisibWave heightAir tempDewpointWater temp
2014-Oct-01 08:29N 43°52' E 035°53'8 8.4
2014-Oct-01 07:29N 43°56' E 036°03'88 7.7
2014-Sep-30 20:06N 44°43' E 037°47'0 0.0
2014-Sep-30 19:33N 44°43' E 037°47'0 0.0
2014-Sep-29 10:31N 44°43' E 037°47'0 0.0
2014-Sep-29 09:31N 44°43' E 037°47'0 0.0
2014-Sep-29 08:31N 44°43' E 037°47'5 5.3
2014-Sep-29 07:33N 44°39' E 037°51'5 5.3
2014-Sep-29 06:32N 44°35' E 037°56'0 0.1
2014-Sep-29 05:32N 44°35' E 037°56'0 0.0
2014-Sep-29 04:29N 44°35' E 037°56'0 0.0
2014-Sep-29 03:32N 44°35' E 037°56'0 0.0
2014-Sep-29 02:32N 44°35' E 037°56'0 0.0
2014-Sep-29 01:32N 44°35' E 037°56'0 0.0
2014-Sep-29 00:32N 44°35' E 037°56'0 0.0
2014-Sep-28 23:32N 44°35' E 037°56'0 0.0
2014-Sep-28 22:32N 44°35' E 037°56'0 0.0
2014-Sep-28 21:29N 44°35' E 037°56'0 0.0
2014-Sep-28 20:29N 44°35' E 037°56'0 0.0
2014-Sep-28 19:29N 44°35' E 037°56'0 0.0
2014-Sep-28 18:32N 44°35' E 037°56'0 0.0
2014-Sep-28 17:32N 44°35' E 037°56'0 0.0
2014-Sep-28 16:32N 44°35' E 037°56'0 0.0
2014-Sep-28 15:32N 44°35' E 037°56'0 0.0
2014-Sep-28 14:29N 44°35' E 037°56'0 0.0
2014-Sep-28 13:29N 44°35' E 037°56'0 0.0
2014-Sep-28 12:29N 44°35' E 037°56'0 0.0
2014-Sep-28 11:32N 44°35' E 037°56'0 0.0
2014-Sep-28 10:32N 44°35' E 037°56'0 0.0
2014-Sep-28 09:29N 44°35' E 037°56'0 0.0
2014-Sep-28 08:32N 44°35' E 037°56'0 0.0
2014-Sep-28 07:32N 44°35' E 037°56'0 0.0
2014-Sep-28 06:29N 44°35' E 037°56'0 0.0
2014-Sep-28 05:29N 44°35' E 037°56'0 0.0
2014-Sep-28 04:29N 44°35' E 037°56'0 0.0
2014-Sep-28 03:29N 44°35' E 037°56'0 0.0
2014-Sep-28 02:32N 44°35' E 037°56'0 0.0
2014-Sep-28 01:29N 44°35' E 037°56'0 0.0
2014-Sep-28 00:32N 44°35' E 037°56'0 0.0
2014-Sep-27 23:29N 44°35' E 037°56'0 0.0
2014-Sep-27 22:26N 44°35' E 037°56'0 0.0
2014-Sep-27 21:32N 44°35' E 037°56'0 0.0
2014-Sep-27 20:32N 44°35' E 037°56'0 0.0
2014-Sep-27 19:29N 44°35' E 037°56'0 0.0
2014-Sep-27 18:32N 44°35' E 037°56'0 0.0
2014-Sep-27 17:29N 44°35' E 037°56'0 0.0
2014-Sep-27 16:29N 44°35' E 037°56'0 0.0
2014-Sep-27 15:32N 44°35' E 037°56'0 0.0
2014-Sep-27 14:29N 44°35' E 037°56'0 0.0
2014-Sep-27 13:32N 44°35' E 037°56'0 0.0
2014-Sep-27 12:32N 44°35' E 037°56'0 0.0
2014-Sep-27 11:32N 44°35' E 037°56'0 0.0
2014-Sep-27 10:32N 44°35' E 037°56'0 0.0
2014-Sep-27 09:32N 44°35' E 037°56'0 0.0
2014-Sep-27 08:29N 44°35' E 037°56'0 0.0
2014-Sep-27 07:32N 44°35' E 037°56'0 0.0
2014-Sep-27 06:32N 44°35' E 037°56'0 0.0
2014-Sep-27 05:32N 44°36' E 037°56'0 0.1
2014-Sep-27 04:32N 44°35' E 037°56'0 0.0
2014-Sep-27 03:32N 44°35' E 037°56'0 0.0
2014-Sep-27 02:32N 44°35' E 037°56'0 0.1
2014-Sep-27 01:29N 44°36' E 037°56'0 0.0
2014-Sep-27 00:32N 44°36' E 037°56'0 0.0
2014-Sep-26 23:32N 44°36' E 037°56'0 0.0
2014-Sep-26 22:32N 44°36' E 037°56'0 0.0
2014-Sep-26 21:32N 44°36' E 037°56'0 0.0
2014-Sep-26 20:33N 44°36' E 037°56'0 0.0
2014-Sep-26 19:33N 44°36' E 037°56'0 0.0
2014-Sep-26 18:33N 44°36' E 037°56'0 0.2
2014-Sep-26 17:33N 44°36' E 037°56'7 6.7
2014-Sep-26 16:33N 44°34' E 037°47'2 1.8
2014-Sep-26 15:33N 44°34' E 037°44'0 0.4
2014-Sep-26 14:33N 44°34' E 037°45'0 0.4
2014-Sep-26 13:33N 44°33' E 037°45'0 0.5
2014-Sep-26 12:33N 44°33' E 037°46'0 0.5
2014-Sep-26 11:33N 44°33' E 037°46'1 0.9
2014-Sep-26 10:33N 44°32' E 037°46'3 3.4
2014-Sep-26 09:33N 44°30' E 037°42'1 1.1
2014-Sep-26 08:33N 44°29' E 037°44'1 1.1
2014-Sep-26 07:33N 44°29' E 037°45'1 0.8
2014-Sep-26 06:33N 44°30' E 037°46'1 0.7
2014-Sep-26 05:33N 44°30' E 037°47'1 1.3
2014-Sep-26 04:33N 44°31' E 037°47'9 8.6
2014-Sep-26 03:33N 44°40' E 037°50'4 4.1
2014-Sep-26 02:33N 44°43' E 037°48'  
Track history (hours):
 
Tides and Currents Weather Stations Pressure Air Temp Water Temp Dewpoint Dewpoint Depression Visibility Wind Speed Wind Dir Waves Ship Positions

Amr R

Last reported at 2014-Oct-01 08:29 UTC. Time now 2014-Oct-02 16:34 UTC.
Position N 43°52' E 035°53'.

Length 130 m; draft 5 m.

Type: Cargo ship. MMSI: 514427000.

Date/timePositionNaut miles runAvg speedWind from/ knotsBaromVisibWave heightAir tempDewpointWater temp
2014-Oct-01 08:29N 43°52' E 035°53'8 8.4
2014-Oct-01 07:29N 43°56' E 036°03'88 7.7
2014-Sep-30 20:06N 44°43' E 037°47'0 0.0
2014-Sep-30 19:33N 44°43' E 037°47'0 0.0
2014-Sep-29 10:31N 44°43' E 037°47'0 0.0
2014-Sep-29 09:31N 44°43' E 037°47'0 0.0
2014-Sep-29 08:31N 44°43' E 037°47'5 5.3
2014-Sep-29 07:33N 44°39' E 037°51'5 5.3
2014-Sep-29 06:32N 44°35' E 037°56'0 0.1
2014-Sep-29 05:32N 44°35' E 037°56'0 0.0
2014-Sep-29 04:29N 44°35' E 037°56'0 0.0
2014-Sep-29 03:32N 44°35' E 037°56'0 0.0
2014-Sep-29 02:32N 44°35' E 037°56'0 0.0
2014-Sep-29 01:32N 44°35' E 037°56'0 0.0
2014-Sep-29 00:32N 44°35' E 037°56'0 0.0
2014-Sep-28 23:32N 44°35' E 037°56'0 0.0
2014-Sep-28 22:32N 44°35' E 037°56'0 0.0
2014-Sep-28 21:29N 44°35' E 037°56'0 0.0
2014-Sep-28 20:29N 44°35' E 037°56'0 0.0
2014-Sep-28 19:29N 44°35' E 037°56'0 0.0
2014-Sep-28 18:32N 44°35' E 037°56'0 0.0
2014-Sep-28 17:32N 44°35' E 037°56'0 0.0
2014-Sep-28 16:32N 44°35' E 037°56'0 0.0
2014-Sep-28 15:32N 44°35' E 037°56'0 0.0
2014-Sep-28 14:29N 44°35' E 037°56'0 0.0
2014-Sep-28 13:29N 44°35' E 037°56'0 0.0
2014-Sep-28 12:29N 44°35' E 037°56'0 0.0
2014-Sep-28 11:32N 44°35' E 037°56'0 0.0
2014-Sep-28 10:32N 44°35' E 037°56'0 0.0
2014-Sep-28 09:29N 44°35' E 037°56'0 0.0
2014-Sep-28 08:32N 44°35' E 037°56'0 0.0
2014-Sep-28 07:32N 44°35' E 037°56'0 0.0
2014-Sep-28 06:29N 44°35' E 037°56'0 0.0
2014-Sep-28 05:29N 44°35' E 037°56'0 0.0
2014-Sep-28 04:29N 44°35' E 037°56'0 0.0
2014-Sep-28 03:29N 44°35' E 037°56'0 0.0
2014-Sep-28 02:32N 44°35' E 037°56'0 0.0
2014-Sep-28 01:29N 44°35' E 037°56'0 0.0
2014-Sep-28 00:32N 44°35' E 037°56'0 0.0
2014-Sep-27 23:29N 44°35' E 037°56'0 0.0
2014-Sep-27 22:26N 44°35' E 037°56'0 0.0
2014-Sep-27 21:32N 44°35' E 037°56'0 0.0
2014-Sep-27 20:32N 44°35' E 037°56'0 0.0
2014-Sep-27 19:29N 44°35' E 037°56'0 0.0
2014-Sep-27 18:32N 44°35' E 037°56'0 0.0
2014-Sep-27 17:29N 44°35' E 037°56'0 0.0
2014-Sep-27 16:29N 44°35' E 037°56'0 0.0
2014-Sep-27 15:32N 44°35' E 037°56'0 0.0
2014-Sep-27 14:29N 44°35' E 037°56'0 0.0
2014-Sep-27 13:32N 44°35' E 037°56'0 0.0
2014-Sep-27 12:32N 44°35' E 037°56'0 0.0
2014-Sep-27 11:32N 44°35' E 037°56'0 0.0
2014-Sep-27 10:32N 44°35' E 037°56'0 0.0
2014-Sep-27 09:32N 44°35' E 037°56'0 0.0
2014-Sep-27 08:29N 44°35' E 037°56'0 0.0
2014-Sep-27 07:32N 44°35' E 037°56'0 0.0
2014-Sep-27 06:32N 44°35' E 037°56'0 0.0
2014-Sep-27 05:32N 44°36' E 037°56'0 0.1
2014-Sep-27 04:32N 44°35' E 037°56'0 0.0
2014-Sep-27 03:32N 44°35' E 037°56'0 0.0
2014-Sep-27 02:32N 44°35' E 037°56'0 0.1
2014-Sep-27 01:29N 44°36' E 037°56'0 0.0
2014-Sep-27 00:32N 44°36' E 037°56'0 0.0
2014-Sep-26 23:32N 44°36' E 037°56'0 0.0
2014-Sep-26 22:32N 44°36' E 037°56'0 0.0
2014-Sep-26 21:32N 44°36' E 037°56'0 0.0
2014-Sep-26 20:33N 44°36' E 037°56'0 0.0
2014-Sep-26 19:33N 44°36' E 037°56'0 0.0
2014-Sep-26 18:33N 44°36' E 037°56'0 0.2
2014-Sep-26 17:33N 44°36' E 037°56'7 6.7
2014-Sep-26 16:33N 44°34' E 037°47'2 1.8
2014-Sep-26 15:33N 44°34' E 037°44'0 0.4
2014-Sep-26 14:33N 44°34' E 037°45'0 0.4
2014-Sep-26 13:33N 44°33' E 037°45'0 0.5
2014-Sep-26 12:33N 44°33' E 037°46'0 0.5
2014-Sep-26 11:33N 44°33' E 037°46'1 0.9
2014-Sep-26 10:33N 44°32' E 037°46'3 3.4
2014-Sep-26 09:33N 44°30' E 037°42'1 1.1
2014-Sep-26 08:33N 44°29' E 037°44'1 1.1
2014-Sep-26 07:33N 44°29' E 037°45'1 0.8
2014-Sep-26 06:33N 44°30' E 037°46'1 0.7
2014-Sep-26 05:33N 44°30' E 037°47'1 1.3
2014-Sep-26 04:33N 44°31' E 037°47'9 8.6
2014-Sep-26 03:33N 44°40' E 037°50'4 4.1
2014-Sep-26 02:33N 44°43' E 037°48'  

Dump ship's entire track history